Time;durP1;ratioP1;P1;durP2;ratioP2;P2;SDS_P1;SDS_P2;PMS_P1;PMS_P2;Temp;Humidity;BMP_temperature;BMP_pressure;BME280_temperature;BME280_humidity;BME280_pressure;Samples;Min_cycle;Max_cycle;Signal;HPM_P1;HPM_P2
2023/09/28 00:01:31;;;;;;;66.80;41.80;;;;;;;-128.00;-1.00;-1.00;101039;315;1004850;-30
2023/09/28 00:03:57;;;;;;;38.50;23.40;;;;;;;-128.00;-1.00;-1.00;101010;315;1004482;-36
2023/09/28 00:06:22;;;;;;;20.10;14.20;;;;;;;-128.00;-1.00;-1.00;101014;315;1004056;-33
2023/09/28 00:08:48;;;;;;;22.90;11.40;;;;;;;-128.00;-1.00;-1.00;100955;316;1002889;-34
2023/09/28 00:11:14;;;;;;;16.50;12.00;;;;;;;-128.00;-1.00;-1.00;101038;315;1003172;-34
2023/09/28 00:13:39;;;;;;;9.50;8.10;;;;;;;-128.00;-1.00;-1.00;101101;315;1004173;-31
2023/09/28 00:16:05;;;;;;;20.60;11.70;;;;;;;-128.00;-1.00;-1.00;101003;316;1003279;-36
2023/09/28 00:18:31;;;;;;;29.70;12.90;;;;;;;-128.00;-1.00;-1.00;101011;315;1002866;-30
2023/09/28 00:20:56;;;;;;;36.50;20.30;;;;;;;-128.00;-1.00;-1.00;101053;315;1003087;-35
2023/09/28 00:23:22;;;;;;;15.50;11.70;;;;;;;-128.00;-1.00;-1.00;99381;315;1953062;-30
2023/09/28 00:25:50;;;;;;;47.50;30.80;;;;;;;-128.00;-1.00;-1.00;45669;315;7504572;-31
2023/09/28 00:28:16;;;;;;;28.50;19.20;;;;;;;-128.00;-1.00;-1.00;19501;315;7505938;-35
2023/09/28 00:30:42;;;;;;;37.00;20.30;;;;;;;-128.00;-1.00;-1.00;19485;315;7504979;-35
2023/09/28 00:33:08;;;;;;;76.30;46.00;;;;;;;-128.00;-1.00;-1.00;19484;320;7504344;-34
2023/09/28 00:35:35;;;;;;;194.90;141.30;;;;;;;-128.00;-1.00;-1.00;19478;316;7504703;-35
2023/09/28 01:17:40;;;;;;;33.30;20.30;;;;;;;-99.95;19.20;19969.94;35550;314;7505068;-31
2023/09/28 01:20:18;;;;;;;30.40;19.50;;;;;;;-128.00;-1.00;-1.00;19193;315;7504934;-35
2023/09/28 01:22:49;;;;;;;27.10;15.50;;;;;;;-128.00;-1.00;-1.00;19099;319;7504918;-35
2023/09/28 01:25:15;;;;;;;24.50;15.20;;;;;;;-128.00;-1.00;-1.00;19100;314;7504706;-30
2023/09/28 01:27:46;;;;;;;26.10;15.70;;;;;;;-128.00;-1.00;-1.00;19095;320;7505363;-34
2023/09/28 01:30:16;;;;;;;23.80;15.90;;;;;;;-128.00;-1.00;-1.00;19085;314;7504462;-37
2023/09/28 01:32:42;;;;;;;23.60;14.50;;;;;;;-128.00;-1.00;-1.00;19105;320;7506188;-39
2023/09/28 01:35:08;;;;;;;28.20;12.80;;;;;;;-128.00;-1.00;-1.00;19097;314;7507020;-30
2023/09/28 01:37:58;;;;;;;22.90;13.90;;;;;;;-128.00;-1.00;-1.00;19090;318;7506795;-31
2023/09/28 01:40:24;;;;;;;30.30;13.60;;;;;;;-128.00;-1.00;-1.00;19061;314;7504831;-31
2023/09/28 01:42:50;;;;;;;30.70;14.70;;;;;;;-128.00;-1.00;-1.00;19099;320;7507055;-33
2023/09/28 01:45:16;;;;;;;17.70;11.50;;;;;;;-128.00;-1.00;-1.00;19106;314;7505047;-31
2023/09/28 01:47:41;;;;;;;23.10;13.80;;;;;;;-128.00;-1.00;-1.00;19114;318;7506267;-31
2023/09/28 01:50:08;;;;;;;28.60;16.30;;;;;;;-128.00;-1.00;-1.00;19103;314;7504385;-36
2023/09/28 01:52:33;;;;;;;18.30;14.50;;;;;;;-128.00;-1.00;-1.00;19087;314;7506214;-31
2023/09/28 01:54:59;;;;;;;20.10;14.10;;;;;;;-128.00;-1.00;-1.00;19107;320;7504871;-31
2023/09/28 01:57:25;;;;;;;19.40;13.20;;;;;;;-128.00;-1.00;-1.00;19079;314;7506398;-35
2023/09/28 01:59:51;;;;;;;22.30;14.80;;;;;;;-128.00;-1.00;-1.00;19529;320;7505499;-35
2023/09/28 02:02:20;;;;;;;24.40;15.10;;;;;;;-128.00;-1.00;-1.00;19526;320;7504409;-31
2023/09/28 02:04:46;;;;;;;34.00;15.70;;;;;;;-128.00;-1.00;-1.00;19105;318;7507205;-35
2023/09/28 02:07:12;;;;;;;30.50;14.70;;;;;;;-128.00;-1.00;-1.00;19103;319;7504570;-32
2023/09/28 02:09:37;;;;;;;28.00;16.10;;;;;;;-128.00;-1.00;-1.00;19094;320;7506399;-35
2023/09/28 02:12:03;;;;;;;20.80;14.70;;;;;;;-128.00;-1.00;-1.00;19137;314;7506542;-35
2023/09/28 02:14:29;;;;;;;29.60;15.10;;;;;;;-128.00;-1.00;-1.00;19113;319;7506332;-32
2023/09/28 02:16:55;;;;;;;25.40;15.10;;;;;;;-128.00;-1.00;-1.00;19108;315;7504689;-30
2023/09/28 02:19:22;;;;;;;27.00;16.50;;;;;;;-128.00;-1.00;-1.00;19096;320;7505053;-34
2023/09/28 02:21:48;;;;;;;26.00;17.30;;;;;;;-128.00;-1.00;-1.00;19091;320;7506195;-36
2023/09/28 02:24:13;;;;;;;22.40;15.90;;;;;;;-128.00;-1.00;-1.00;19103;314;7505004;-36
2023/09/28 02:26:39;;;;;;;35.70;15.30;;;;;;;-128.00;-1.00;-1.00;19101;315;7505117;-32
2023/09/28 02:29:04;;;;;;;51.50;15.70;;;;;;;-128.00;-1.00;-1.00;19072;315;7506281;-31
2023/09/28 02:31:31;;;;;;;26.00;14.80;;;;;;;-128.00;-1.00;-1.00;19095;315;7504561;-36
2023/09/28 02:33:57;;;;;;;30.90;16.00;;;;;;;-128.00;-1.00;-1.00;19108;315;7504368;-36
2023/09/28 02:36:22;;;;;;;29.30;15.00;;;;;;;-128.00;-1.00;-1.00;19115;320;7504821;-31
2023/09/28 02:38:50;;;;;;;31.50;18.60;;;;;;;-128.00;-1.00;-1.00;19533;319;7505477;-36
2023/09/28 02:41:19;;;;;;;18.20;13.60;;;;;;;-128.00;-1.00;-1.00;19079;314;7506418;-31
2023/09/28 02:43:45;;;;;;;23.30;15.30;;;;;;;-128.00;-1.00;-1.00;19057;320;7505248;-35
2023/09/28 02:46:11;;;;;;;38.30;16.50;;;;;;;-128.00;-1.00;-1.00;19068;316;7505531;-30
2023/09/28 02:48:37;;;;;;;19.50;14.50;;;;;;;-128.00;-1.00;-1.00;19106;320;7504920;-35
2023/09/28 02:51:04;;;;;;;27.80;16.90;;;;;;;-128.00;-1.00;-1.00;19105;314;7505016;-35
2023/09/28 02:53:30;;;;;;;29.20;17.20;;;;;;;-128.00;-1.00;-1.00;19066;314;7506389;-31
2023/09/28 02:55:56;;;;;;;35.60;17.70;;;;;;;-128.00;-1.00;-1.00;19126;315;7504900;-35
2023/09/28 02:58:24;;;;;;;40.00;17.00;;;;;;;-128.00;-1.00;-1.00;19107;315;7504826;-34
2023/09/28 03:00:52;;;;;;;28.60;14.80;;;;;;;-128.00;-1.00;-1.00;19070;316;7504347;-35
2023/09/28 03:03:17;;;;;;;26.00;15.40;;;;;;;-128.00;-1.00;-1.00;19094;315;7506137;-30
2023/09/28 03:05:43;;;;;;;29.10;16.50;;;;;;;-128.00;-1.00;-1.00;19084;320;7506566;-34
2023/09/28 03:08:09;;;;;;;29.20;17.50;;;;;;;-128.00;-1.00;-1.00;19094;320;7504709;-35
2023/09/28 03:10:39;;;;;;;31.70;16.80;;;;;;;-128.00;-1.00;-1.00;19102;314;7506301;-35
2023/09/28 03:13:05;;;;;;;23.80;14.90;;;;;;;-128.00;-1.00;-1.00;19087;315;7505252;-31
2023/09/28 03:15:32;;;;;;;24.00;15.90;;;;;;;-128.00;-1.00;-1.00;19127;320;7505627;-31
2023/09/28 03:17:58;;;;;;;34.90;17.30;;;;;;;-128.00;-1.00;-1.00;19116;320;7505263;-35
2023/09/28 03:20:25;;;;;;;25.50;15.90;;;;;;;-128.00;-1.00;-1.00;19100;318;7506890;-35
2023/09/28 03:22:51;;;;;;;31.10;18.50;;;;;;;-128.00;-1.00;-1.00;19084;315;7506332;-34
2023/09/28 03:25:18;;;;;;;35.70;16.60;;;;;;;-128.00;-1.00;-1.00;19090;315;7506505;-35
2023/09/28 03:27:48;;;;;;;36.00;18.70;;;;;;;-128.00;-1.00;-1.00;19075;316;7505272;-37
2023/09/28 03:30:14;;;;;;;24.60;14.70;;;;;;;-128.00;-1.00;-1.00;19119;318;7504633;-30
2023/09/28 03:32:40;;;;;;;24.70;17.20;;;;;;;-128.00;-1.00;-1.00;19102;314;7505120;-30
2023/09/28 03:35:12;;;;;;;30.60;16.60;;;;;;;-128.00;-1.00;-1.00;19096;315;7505014;-31
2023/09/28 03:37:38;;;;;;;26.10;17.00;;;;;;;-128.00;-1.00;-1.00;19068;320;7506265;-35
2023/09/28 03:40:11;;;;;;;37.20;16.50;;;;;;;-128.00;-1.00;-1.00;19057;320;7505502;-31
2023/09/28 03:42:40;;;;;;;41.90;17.00;;;;;;;-128.00;-1.00;-1.00;19088;320;7504888;-31
2023/09/28 03:45:08;;;;;;;25.40;16.20;;;;;;;-128.00;-1.00;-1.00;19077;320;7504676;-35
2023/09/28 03:47:36;;;;;;;34.40;16.70;;;;;;;-128.00;-1.00;-1.00;19050;320;7505447;-35
2023/09/28 03:50:01;;;;;;;29.20;16.60;;;;;;;-128.00;-1.00;-1.00;19095;314;7504890;-31
2023/09/28 03:52:27;;;;;;;34.60;18.20;;;;;;;-128.00;-1.00;-1.00;19061;317;7504870;-35
2023/09/28 03:54:53;;;;;;;29.80;17.20;;;;;;;-128.00;-1.00;-1.00;19103;318;7504783;-31
2023/09/28 03:57:19;;;;;;;25.30;18.20;;;;;;;-128.00;-1.00;-1.00;19100;320;7504910;-31
2023/09/28 03:59:45;;;;;;;20.30;15.80;;;;;;;-128.00;-1.00;-1.00;19078;320;7506310;-34
2023/09/28 04:02:11;;;;;;;28.80;18.20;;;;;;;-128.00;-1.00;-1.00;19501;315;7504885;-37
2023/09/28 04:04:37;;;;;;;33.00;18.20;;;;;;;-128.00;-1.00;-1.00;19511;315;7505174;-31
2023/09/28 04:07:03;;;;;;;32.00;19.20;;;;;;;-128.00;-1.00;-1.00;19508;314;7504350;-32
2023/09/28 04:09:29;;;;;;;24.10;16.40;;;;;;;-128.00;-1.00;-1.00;19500;316;7504575;-32
2023/09/28 04:11:59;;;;;;;21.20;17.30;;;;;;;-128.00;-1.00;-1.00;19094;314;7507014;-36
2023/09/28 04:14:24;;;;;;;22.70;16.80;;;;;;;-128.00;-1.00;-1.00;19087;314;7506109;-31
2023/09/28 04:16:50;;;;;;;21.50;16.80;;;;;;;-128.00;-1.00;-1.00;19093;315;7506240;-36
2023/09/28 04:19:16;;;;;;;34.40;17.70;;;;;;;-128.00;-1.00;-1.00;19056;315;7504472;-36
2023/09/28 04:21:42;;;;;;;36.30;19.30;;;;;;;-128.00;-1.00;-1.00;19096;320;7505114;-32
2023/09/28 04:24:08;;;;;;;26.90;14.90;;;;;;;-128.00;-1.00;-1.00;19098;320;7505987;-31
2023/09/28 04:26:34;;;;;;;45.80;16.60;;;;;;;-128.00;-1.00;-1.00;19076;316;7504557;-32
2023/09/28 04:29:00;;;;;;;21.70;16.20;;;;;;;-128.00;-1.00;-1.00;19095;314;7504455;-34
2023/09/28 04:31:26;;;;;;;39.90;17.10;;;;;;;-128.00;-1.00;-1.00;19097;320;7504744;-31
2023/09/28 04:33:52;;;;;;;32.50;20.40;;;;;;;-128.00;-1.00;-1.00;19502;320;7506789;-35
2023/09/28 04:36:18;;;;;;;31.30;19.20;;;;;;;-128.00;-1.00;-1.00;19523;315;7504622;-31
2023/09/28 04:38:45;;;;;;;39.60;20.40;;;;;;;-128.00;-1.00;-1.00;19514;320;7505888;-36
2023/09/28 04:41:11;;;;;;;32.30;19.50;;;;;;;-128.00;-1.00;-1.00;19523;320;7504495;-31
2023/09/28 04:43:37;;;;;;;34.10;18.70;;;;;;;-128.00;-1.00;-1.00;19528;320;7504711;-34
2023/09/28 04:46:05;;;;;;;38.10;19.60;;;;;;;-128.00;-1.00;-1.00;19514;315;7505203;-36
2023/09/28 04:48:31;;;;;;;29.60;18.20;;;;;;;-128.00;-1.00;-1.00;19104;318;7506102;-31
2023/09/28 04:50:57;;;;;;;35.00;20.10;;;;;;;-128.00;-1.00;-1.00;19508;315;7504791;-32
2023/09/28 04:53:24;;;;;;;26.20;18.50;;;;;;;-128.00;-1.00;-1.00;19509;315;7505307;-31
2023/09/28 04:55:51;;;;;;;40.00;18.40;;;;;;;-128.00;-1.00;-1.00;19509;314;7504669;-35
2023/09/28 04:58:17;;;;;;;30.60;20.00;;;;;;;-128.00;-1.00;-1.00;19109;315;7505505;-35
2023/09/28 05:00:43;;;;;;;46.20;17.70;;;;;;;-128.00;-1.00;-1.00;19090;320;7504980;-35
2023/09/28 05:03:09;;;;;;;29.00;18.10;;;;;;;-128.00;-1.00;-1.00;19089;320;7504661;-30
2023/09/28 05:05:35;;;;;;;28.00;17.60;;;;;;;-128.00;-1.00;-1.00;19528;314;7504541;-31
2023/09/28 05:08:02;;;;;;;30.30;19.40;;;;;;;-128.00;-1.00;-1.00;19520;318;7504748;-35
2023/09/28 05:10:28;;;;;;;25.20;17.90;;;;;;;-128.00;-1.00;-1.00;19102;320;7506393;-35
2023/09/28 05:12:55;;;;;;;37.50;18.50;;;;;;;-128.00;-1.00;-1.00;19530;315;7504868;-31
2023/09/28 05:15:21;;;;;;;33.60;18.80;;;;;;;-128.00;-1.00;-1.00;19501;315;7506954;-30
2023/09/28 05:17:48;;;;;;;32.90;18.60;;;;;;;-128.00;-1.00;-1.00;19513;315;7506742;-31
2023/09/28 05:20:14;;;;;;;27.00;18.10;;;;;;;-128.00;-1.00;-1.00;19069;318;7506106;-31
2023/09/28 05:22:40;;;;;;;39.00;17.00;;;;;;;-128.00;-1.00;-1.00;19098;315;7505930;-31
2023/09/28 05:25:06;;;;;;;22.60;17.50;;;;;;;-128.00;-1.00;-1.00;19093;320;7505161;-32
2023/09/28 05:27:33;;;;;;;28.20;14.90;;;;;;;-128.00;-1.00;-1.00;19085;315;7506789;-37
2023/09/28 05:29:59;;;;;;;29.80;17.20;;;;;;;-128.00;-1.00;-1.00;19095;320;7505442;-31
2023/09/28 05:32:24;;;;;;;20.70;16.40;;;;;;;-128.00;-1.00;-1.00;19093;315;7506406;-32
2023/09/28 05:34:51;;;;;;;20.80;15.30;;;;;;;-128.00;-1.00;-1.00;19094;320;7504807;-35
2023/09/28 05:37:16;;;;;;;24.00;17.50;;;;;;;-128.00;-1.00;-1.00;19089;315;7504597;-30
2023/09/28 05:39:42;;;;;;;26.50;18.40;;;;;;;-128.00;-1.00;-1.00;19092;318;7506429;-35
2023/09/28 05:42:08;;;;;;;29.10;18.80;;;;;;;-128.00;-1.00;-1.00;19088;315;7505039;-30
2023/09/28 05:44:34;;;;;;;49.40;16.00;;;;;;;-128.00;-1.00;-1.00;19094;315;7505212;-31
2023/09/28 05:46:59;;;;;;;27.50;17.60;;;;;;;-128.00;-1.00;-1.00;19091;320;7504989;-30
2023/09/28 05:49:26;;;;;;;29.20;18.60;;;;;;;-128.00;-1.00;-1.00;19093;315;7505672;-31
2023/09/28 05:51:52;;;;;;;32.00;17.10;;;;;;;-128.00;-1.00;-1.00;19085;320;7505031;-31
2023/09/28 05:54:18;;;;;;;28.10;19.30;;;;;;;-128.00;-1.00;-1.00;19096;314;7505211;-35
2023/09/28 05:56:44;;;;;;;22.40;17.80;;;;;;;-128.00;-1.00;-1.00;19098;319;7506313;-31
2023/09/28 05:59:10;;;;;;;31.50;19.40;;;;;;;-128.00;-1.00;-1.00;19090;320;7504655;-31
2023/09/28 06:01:37;;;;;;;42.00;18.40;;;;;;;-128.00;-1.00;-1.00;19066;316;7504801;-31
2023/09/28 06:04:04;;;;;;;28.60;18.20;;;;;;;-128.00;-1.00;-1.00;19097;315;7505963;-31
2023/09/28 06:06:30;;;;;;;39.50;19.60;;;;;;;-128.00;-1.00;-1.00;19095;314;7506108;-35
2023/09/28 06:08:56;;;;;;;34.10;17.50;;;;;;;-128.00;-1.00;-1.00;19103;315;7504935;-35
2023/09/28 06:11:22;;;;;;;20.30;14.60;;;;;;;-128.00;-1.00;-1.00;19057;316;7505453;-35
2023/09/28 06:13:47;;;;;;;15.50;12.40;;;;;;;-128.00;-1.00;-1.00;19097;320;7504739;-34
2023/09/28 06:16:14;;;;;;;15.30;12.10;;;;;;;-128.00;-1.00;-1.00;19081;320;7505171;-40
2023/09/28 06:18:40;;;;;;;34.90;13.70;;;;;;;-128.00;-1.00;-1.00;19103;320;7504899;-31
2023/09/28 06:21:06;;;;;;;23.40;14.30;;;;;;;-128.00;-1.00;-1.00;19084;315;7504673;-35
2023/09/28 06:23:33;;;;;;;23.40;12.60;;;;;;;-128.00;-1.00;-1.00;19098;314;7506537;-33
2023/09/28 06:25:59;;;;;;;15.90;12.30;;;;;;;-128.00;-1.00;-1.00;19108;314;7506521;-36
2023/09/28 06:28:28;;;;;;;13.00;11.00;;;;;;;-128.00;-1.00;-1.00;19525;320;7505888;-36
2023/09/28 06:30:54;;;;;;;16.00;11.30;;;;;;;-128.00;-1.00;-1.00;19110;315;7504689;-35
2023/09/28 06:33:22;;;;;;;18.20;11.90;;;;;;;-128.00;-1.00;-1.00;19090;315;7506844;-31
2023/09/28 06:35:48;;;;;;;30.80;12.10;;;;;;;-128.00;-1.00;-1.00;19103;315;7504521;-35
2023/09/28 06:38:14;;;;;;;25.20;11.70;;;;;;;-128.00;-1.00;-1.00;19202;315;7504523;-35
2023/09/28 06:40:42;;;;;;;11.60;9.20;;;;;;;-128.00;-1.00;-1.00;19091;320;7504747;-32
2023/09/28 06:43:08;;;;;;;13.40;11.30;;;;;;;-128.00;-1.00;-1.00;19071;320;7506253;-36
2023/09/28 06:45:34;;;;;;;13.30;10.20;;;;;;;-128.00;-1.00;-1.00;19099;314;7506604;-31
2023/09/28 06:48:00;;;;;;;12.60;8.80;;;;;;;-128.00;-1.00;-1.00;19056;319;7504402;-33
2023/09/28 06:50:27;;;;;;;37.90;9.70;;;;;;;-128.00;-1.00;-1.00;19104;318;7505155;-33
2023/09/28 06:52:53;;;;;;;9.80;8.50;;;;;;;-128.00;-1.00;-1.00;19095;315;7505413;-36
2023/09/28 06:55:19;;;;;;;22.40;9.60;;;;;;;-128.00;-1.00;-1.00;19100;314;7504790;-35
2023/09/28 06:57:46;;;;;;;12.70;9.50;;;;;;;-128.00;-1.00;-1.00;19505;314;7505123;-32
2023/09/28 07:00:16;;;;;;;13.50;9.40;;;;;;;-128.00;-1.00;-1.00;19058;320;7505021;-32
2023/09/28 07:02:47;;;;;;;20.50;8.30;;;;;;;-128.00;-1.00;-1.00;19109;315;7504708;-32
2023/09/28 07:05:16;;;;;;;9.30;8.00;;;;;;;-128.00;-1.00;-1.00;19098;315;7504762;-39
2023/09/28 07:07:43;;;;;;;12.20;7.20;;;;;;;-128.00;-1.00;-1.00;19062;320;7504653;-34
2023/09/28 07:10:12;;;;;;;10.80;7.00;;;;;;;-128.00;-1.00;-1.00;19074;320;7505034;-35
2023/09/28 07:12:38;;;;;;;12.70;7.30;;;;;;;-128.00;-1.00;-1.00;19104;315;7505356;-37
2023/09/28 07:15:05;;;;;;;6.70;6.00;;;;;;;-128.00;-1.00;-1.00;19073;316;7504962;-36
2023/09/28 07:17:30;;;;;;;13.90;5.70;;;;;;;-128.00;-1.00;-1.00;19108;315;7504892;-35
2023/09/28 07:19:57;;;;;;;14.10;6.80;;;;;;;-128.00;-1.00;-1.00;19092;315;7504866;-32
2023/09/28 07:22:22;;;;;;;9.10;6.50;;;;;;;-128.00;-1.00;-1.00;19088;314;7504748;-36
2023/09/28 07:24:48;;;;;;;7.10;5.40;;;;;;;-128.00;-1.00;-1.00;19046;320;7504616;-32
2023/09/28 07:27:14;;;;;;;7.40;6.10;;;;;;;-128.00;-1.00;-1.00;19097;315;7504596;-32
2023/09/28 07:29:40;;;;;;;8.10;5.90;;;;;;;-128.00;-1.00;-1.00;19487;320;7505461;-32
2023/09/28 07:32:08;;;;;;;13.40;5.60;;;;;;;-128.00;-1.00;-1.00;19519;314;7505271;-32
2023/09/28 07:34:34;;;;;;;6.30;5.50;;;;;;;-128.00;-1.00;-1.00;19093;315;7505177;-36
2023/09/28 07:37:00;;;;;;;6.90;5.30;;;;;;;-128.00;-1.00;-1.00;19098;320;7504657;-36
2023/09/28 07:39:25;;;;;;;12.70;6.30;;;;;;;-128.00;-1.00;-1.00;19065;316;7504705;-36
2023/09/28 07:41:51;;;;;;;8.00;6.20;;;;;;;-128.00;-1.00;-1.00;19496;320;7504300;-35
2023/09/28 07:44:21;;;;;;;12.80;5.80;;;;;;;-128.00;-1.00;-1.00;19507;320;7504356;-35
2023/09/28 07:46:47;;;;;;;9.40;4.80;;;;;;;-128.00;-1.00;-1.00;19109;319;7505052;-36
2023/09/28 07:49:14;;;;;;;6.60;3.80;;;;;;;-128.00;-1.00;-1.00;19095;320;7506374;-32
2023/09/28 07:51:40;;;;;;;4.70;4.10;;;;;;;-128.00;-1.00;-1.00;19060;314;7504828;-36
2023/09/28 07:54:06;;;;;;;5.10;4.50;;;;;;;-128.00;-1.00;-1.00;19076;320;7505017;-32
2023/09/28 07:56:33;;;;;;;11.50;3.50;;;;;;;-128.00;-1.00;-1.00;19119;319;7506246;-31
2023/09/28 07:58:59;;;;;;;11.70;3.80;;;;;;;-128.00;-1.00;-1.00;19090;315;7505162;-36
2023/09/28 08:01:26;;;;;;;5.00;3.40;;;;;;;-128.00;-1.00;-1.00;19084;315;7505560;-33
2023/09/28 08:03:52;;;;;;;5.80;3.70;;;;;;;-128.00;-1.00;-1.00;19096;315;7505648;-36
2023/09/28 08:06:19;;;;;;;9.00;4.70;;;;;;;-128.00;-1.00;-1.00;19088;320;7505570;-33
2023/09/28 08:08:45;;;;;;;4.20;3.80;;;;;;;-128.00;-1.00;-1.00;19084;315;7506691;-32
2023/09/28 08:11:12;;;;;;;13.20;4.50;;;;;;;-128.00;-1.00;-1.00;19518;320;7505157;-36
2023/09/28 08:13:38;;;;;;;3.90;2.50;;;;;;;-128.00;-1.00;-1.00;19089;315;7505799;-33
2023/09/28 08:16:04;;;;;;;8.20;4.20;;;;;;;-128.00;-1.00;-1.00;19103;314;7505483;-36
2023/09/28 08:18:30;;;;;;;5.10;4.10;;;;;;;-128.00;-1.00;-1.00;19092;320;7505929;-36
2023/09/28 08:20:56;;;;;;;3.50;2.60;;;;;;;-128.00;-1.00;-1.00;19087;318;7504373;-32
2023/09/28 08:23:22;;;;;;;3.20;2.90;;;;;;;-128.00;-1.00;-1.00;19088;315;7504615;-36
2023/09/28 08:25:47;;;;;;;4.40;4.00;;;;;;;-128.00;-1.00;-1.00;19104;314;7506016;-33
2023/09/28 08:28:14;;;;;;;8.30;4.10;;;;;;;-128.00;-1.00;-1.00;19113;314;7505223;-32
2023/09/28 08:30:40;;;;;;;5.10;3.60;;;;;;;-128.00;-1.00;-1.00;19094;314;7504780;-33
2023/09/28 08:33:07;;;;;;;4.50;3.30;;;;;;;-128.00;-1.00;-1.00;19105;315;7504607;-36
2023/09/28 08:35:35;;;;;;;11.30;4.20;;;;;;;-128.00;-1.00;-1.00;19088;318;7504531;-36
2023/09/28 08:38:01;;;;;;;7.40;4.30;;;;;;;-128.00;-1.00;-1.00;19102;320;7505077;-32
2023/09/28 08:40:30;;;;;;;13.50;3.20;;;;;;;-128.00;-1.00;-1.00;39658;314;7506396;-33
2023/09/28 08:42:56;;;;;;;4.60;3.60;;;;;;;-128.00;-1.00;-1.00;19100;314;7505207;-32
2023/09/28 08:45:24;;;;;;;12.60;3.90;;;;;;;-128.00;-1.00;-1.00;19530;320;7505191;-33
2023/09/28 08:47:51;;;;;;;10.70;3.60;;;;;;;-128.00;-1.00;-1.00;19468;320;7504974;-36
2023/09/28 08:50:22;;;;;;;3.30;3.00;;;;;;;-128.00;-1.00;-1.00;19197;318;7504577;-36
2023/09/28 08:52:49;;;;;;;10.00;2.30;;;;;;;-128.00;-1.00;-1.00;19104;320;7504745;-31
2023/09/28 08:55:15;;;;;;;3.90;2.80;;;;;;;-128.00;-1.00;-1.00;19092;318;7504888;-36
2023/09/28 08:57:41;;;;;;;13.80;3.00;;;;;;;-128.00;-1.00;-1.00;19094;318;7505118;-32
2023/09/28 09:00:13;;;;;;;14.80;3.60;;;;;;;-128.00;-1.00;-1.00;19079;315;7506290;-35
2023/09/28 09:02:42;;;;;;;3.90;3.60;;;;;;;-128.00;-1.00;-1.00;19752;320;7504592;-32
2023/09/28 09:05:08;;;;;;;4.60;3.80;;;;;;;-128.00;-1.00;-1.00;19089;318;7506019;-31
2023/09/28 09:07:33;;;;;;;4.60;2.90;;;;;;;-128.00;-1.00;-1.00;19063;320;7504813;-32
2023/09/28 09:10:00;;;;;;;8.80;2.30;;;;;;;-128.00;-1.00;-1.00;19113;319;7506179;-36
2023/09/28 09:12:28;;;;;;;4.50;3.70;;;;;;;-128.00;-1.00;-1.00;19109;315;7506409;-32
2023/09/28 09:14:54;;;;;;;4.40;3.30;;;;;;;-128.00;-1.00;-1.00;19148;316;7505127;-33
2023/09/28 09:17:19;;;;;;;10.60;2.80;;;;;;;-128.00;-1.00;-1.00;21686;315;7505599;-33
2023/09/28 09:19:49;;;;;;;12.30;3.40;;;;;;;-128.00;-1.00;-1.00;19084;316;7504326;-36
2023/09/28 09:22:28;;;;;;;16.40;3.40;;;;;;;-128.00;-1.00;-1.00;30360;315;7504469;-32
2023/09/28 09:24:57;;;;;;;18.80;3.70;;;;;;;-128.00;-1.00;-1.00;58032;316;7504658;-36
2023/09/28 09:27:28;;;;;;;3.60;2.60;;;;;;;-128.00;-1.00;-1.00;20882;315;7504936;-33
2023/09/28 09:29:59;;;;;;;6.00;3.20;;;;;;;-128.00;-1.00;-1.00;19105;320;7506463;-33
2023/09/28 09:32:25;;;;;;;3.40;3.10;;;;;;;-128.00;-1.00;-1.00;19105;320;7506181;-32
2023/09/28 09:34:54;;;;;;;3.10;2.70;;;;;;;-128.00;-1.00;-1.00;19525;320;7504517;-36
2023/09/28 09:37:20;;;;;;;6.30;3.90;;;;;;;-128.00;-1.00;-1.00;34054;315;7504278;-31
2023/09/28 09:39:45;;;;;;;6.50;3.20;;;;;;;-128.00;-1.00;-1.00;101194;314;1003403;-33
2023/09/28 09:42:11;;;;;;;5.70;3.20;;;;;;;-128.00;-1.00;-1.00;101203;314;1003678;-35
2023/09/28 09:44:40;;;;;;;3.90;2.30;;;;;;;-128.00;-1.00;-1.00;100549;315;3002868;-33
2023/09/28 09:47:13;;;;;;;13.80;3.80;;;;;;;-128.00;-1.00;-1.00;39755;314;7505468;-32
2023/09/28 09:49:39;;;;;;;8.30;3.10;;;;;;;-128.00;-1.00;-1.00;19110;319;7506608;-32
2023/09/28 09:52:06;;;;;;;6.20;3.20;;;;;;;-128.00;-1.00;-1.00;19524;315;7505499;-36
2023/09/28 09:54:32;;;;;;;14.60;3.30;;;;;;;-128.00;-1.00;-1.00;19065;320;7504688;-32
2023/09/28 09:56:57;;;;;;;3.10;2.30;;;;;;;-128.00;-1.00;-1.00;19104;320;7504752;-36
2023/09/28 09:59:24;;;;;;;5.70;3.50;;;;;;;-128.00;-1.00;-1.00;19097;319;7504234;-31
2023/09/28 10:01:52;;;;;;;4.00;2.70;;;;;;;-128.00;-1.00;-1.00;19065;316;7506864;-36
2023/09/28 10:04:18;;;;;;;6.20;2.60;;;;;;;-128.00;-1.00;-1.00;19100;314;7506364;-32
2023/09/28 10:06:51;;;;;;;3.60;3.30;;;;;;;-128.00;-1.00;-1.00;19071;320;7504679;-35
2023/09/28 10:09:17;;;;;;;2.80;2.60;;;;;;;-128.00;-1.00;-1.00;19094;315;7504564;-36
2023/09/28 10:11:43;;;;;;;5.20;2.40;;;;;;;-128.00;-1.00;-1.00;32472;314;7504740;-34
2023/09/28 10:14:10;;;;;;;7.20;1.40;;;;;;;-128.00;-1.00;-1.00;101157;314;1003124;-36
2023/09/28 10:16:36;;;;;;;3.30;2.70;;;;;;;-128.00;-1.00;-1.00;68655;314;7504236;-36
2023/09/28 10:19:04;;;;;;;11.30;2.90;;;;;;;-128.00;-1.00;-1.00;19512;315;7504978;-32
2023/09/28 10:21:38;;;;;;;5.20;2.80;;;;;;;-128.00;-1.00;-1.00;19093;314;7505062;-32
2023/09/28 10:24:12;;;;;;;2.50;2.20;;;;;;;-128.00;-1.00;-1.00;20966;318;7505571;-36
2023/09/28 10:26:42;;;;;;;5.70;2.90;;;;;;;-128.00;-1.00;-1.00;19135;314;7506386;-32
2023/09/28 10:29:08;;;;;;;3.40;2.30;;;;;;;-128.00;-1.00;-1.00;21689;314;7506195;-32
2023/09/28 10:31:39;;;;;;;8.10;3.20;;;;;;;-128.00;-1.00;-1.00;85499;315;7504190;-31
2023/09/28 10:34:06;;;;;;;2.70;2.50;;;;;;;-128.00;-1.00;-1.00;97367;314;6230621;-35
2023/09/28 10:36:33;;;;;;;3.50;2.90;;;;;;;-128.00;-1.00;-1.00;101139;314;1003612;-36
2023/09/28 10:39:13;;;;;;;6.00;2.60;;;;;;;-128.00;-1.00;-1.00;101164;314;1003572;-35
2023/09/28 10:41:52;;;;;;;8.00;3.20;;;;;;;-128.00;-1.00;-1.00;68066;315;7504193;-36
2023/09/28 10:44:18;;;;;;;3.80;2.20;;;;;;;-128.00;-1.00;-1.00;101076;315;1003411;-35
2023/09/28 10:46:47;;;;;;;6.90;3.30;;;;;;;-128.00;-1.00;-1.00;101039;314;1002905;-35
2023/09/28 10:49:14;;;;;;;3.50;3.00;;;;;;;-128.00;-1.00;-1.00;101177;314;1002910;-32
2023/09/28 10:51:41;;;;;;;10.40;3.00;;;;;;;-128.00;-1.00;-1.00;101002;316;1003016;-32
2023/09/28 10:54:08;;;;;;;2.20;1.60;;;;;;;-128.00;-1.00;-1.00;83087;314;7504338;-33
2023/09/28 10:56:34;;;;;;;3.80;2.90;;;;;;;-128.00;-1.00;-1.00;95274;315;3003449;-33
2023/09/28 10:59:02;;;;;;;5.90;3.00;;;;;;;-128.00;-1.00;-1.00;93740;314;3003662;-35
2023/09/28 11:01:28;;;;;;;5.90;2.10;;;;;;;-128.00;-1.00;-1.00;101239;314;1003160;-36
2023/09/28 11:03:54;;;;;;;3.90;2.50;;;;;;;-128.00;-1.00;-1.00;101185;314;1002496;-32
2023/09/28 11:06:19;;;;;;;4.90;1.10;;;;;;;-128.00;-1.00;-1.00;101113;314;1003361;-31
2023/09/28 11:08:45;;;;;;;2.80;1.80;;;;;;;-128.00;-1.00;-1.00;100962;316;1003807;-32
2023/09/28 11:11:11;;;;;;;2.10;1.50;;;;;;;-128.00;-1.00;-1.00;101258;314;1003208;-35
2023/09/28 11:13:38;;;;;;;7.80;3.60;;;;;;;-128.00;-1.00;-1.00;101176;314;1004050;-37
2023/09/28 11:16:03;;;;;;;4.60;2.30;;;;;;;-128.00;-1.00;-1.00;101185;315;1003316;-37
2023/09/28 11:18:29;;;;;;;4.20;2.60;;;;;;;-128.00;-1.00;-1.00;101197;314;1003864;-32
2023/09/28 11:20:58;;;;;;;10.30;3.50;;;;;;;-128.00;-1.00;-1.00;101185;314;1003012;-32
2023/09/28 11:23:24;;;;;;;7.50;2.50;;;;;;;-128.00;-1.00;-1.00;101194;315;1002743;-31
2023/09/28 11:25:50;;;;;;;9.10;2.70;;;;;;;-128.00;-1.00;-1.00;101169;314;1003037;-46
2023/09/28 11:28:16;;;;;;;9.50;2.00;;;;;;;-128.00;-1.00;-1.00;101121;314;1002894;-32
2023/09/28 11:30:42;;;;;;;6.70;2.40;;;;;;;-128.00;-1.00;-1.00;101144;314;1003067;-32
2023/09/28 11:33:07;;;;;;;13.40;2.50;;;;;;;-128.00;-1.00;-1.00;101063;314;1004464;-35
2023/09/28 11:35:34;;;;;;;3.80;1.50;;;;;;;-128.00;-1.00;-1.00;101140;316;1003164;-31
2023/09/28 11:38:00;;;;;;;4.10;2.00;;;;;;;-128.00;-1.00;-1.00;101158;314;1003278;-30
2023/09/28 11:40:28;;;;;;;8.00;2.40;;;;;;;-128.00;-1.00;-1.00;101189;314;1003234;-33
2023/09/28 11:42:57;;;;;;;3.50;1.60;;;;;;;-128.00;-1.00;-1.00;101200;314;1003730;-36
2023/09/28 11:45:29;;;;;;;3.20;1.90;;;;;;;-128.00;-1.00;-1.00;101227;314;1004774;-36
2023/09/28 11:47:55;;;;;;;4.70;2.00;;;;;;;-128.00;-1.00;-1.00;101261;314;1003900;-31
2023/09/28 11:50:22;;;;;;;5.90;2.80;;;;;;;-128.00;-1.00;-1.00;101163;314;1003841;-32
2023/09/28 11:52:48;;;;;;;2.80;2.10;;;;;;;-128.00;-1.00;-1.00;101193;314;1003726;-32
2023/09/28 11:55:17;;;;;;;5.90;2.70;;;;;;;-128.00;-1.00;-1.00;101193;314;1003699;-36
2023/09/28 11:57:46;;;;;;;2.40;1.60;;;;;;;-128.00;-1.00;-1.00;101236;315;1003320;-36
2023/09/28 12:00:19;;;;;;;5.80;2.20;;;;;;;-128.00;-1.00;-1.00;101193;315;1003240;-35